Time;durP1;ratioP1;P1;durP2;ratioP2;P2;SDS_P1;SDS_P2;PMS_P1;PMS_P2;Temp;Humidity;BMP_temperature;BMP_pressure;BME280_temperature;BME280_humidity;BME280_pressure;Samples;Min_cycle;Max_cycle;Signal;HPM_P1;HPM_P2
2021/01/24 00:00:14;;;;;;;12.93;7.30;;;6.30;76.00;;;;;;5062498;28;20460;-62
2021/01/24 00:02:40;;;;;;;18.75;7.60;;;6.30;76.00;;;;;;5071389;28;20487;-61
2021/01/24 00:05:08;;;;;;;16.98;8.70;;;6.30;76.00;;;;;;5072516;28;20032;-61
2021/01/24 00:07:33;;;;;;;13.20;7.63;;;6.30;76.00;;;;;;5072107;28;20111;-61
2021/01/24 00:09:59;;;;;;;14.77;8.10;;;6.30;76.00;;;;;;5071952;28;20107;-61
2021/01/24 00:12:25;;;;;;;18.75;7.55;;;6.30;76.00;;;;;;5072356;28;20105;-61
2021/01/24 00:14:50;;;;;;;15.80;8.93;;;6.30;75.90;;;;;;5071714;28;20063;-62
2021/01/24 00:17:16;;;;;;;11.60;6.93;;;6.30;75.90;;;;;;5072282;28;20036;-62
2021/01/24 00:19:42;;;;;;;15.60;7.47;;;6.40;75.90;;;;;;5072186;28;20028;-62
2021/01/24 00:22:07;;;;;;;13.63;7.63;;;6.30;75.80;;;;;;5072522;28;20028;-62
2021/01/24 00:24:33;;;;;;;15.32;7.70;;;6.30;75.90;;;;;;5075748;28;20040;-61
2021/01/24 00:26:59;;;;;;;17.10;8.25;;;6.30;75.80;;;;;;5075807;28;20064;-61
2021/01/24 00:29:24;;;;;;;17.00;8.25;;;6.30;75.70;;;;;;5075023;28;20032;-61
2021/01/24 00:31:50;;;;;;;18.90;8.27;;;6.30;75.70;;;;;;5075711;28;20021;-61
2021/01/24 00:34:16;;;;;;;13.38;7.45;;;6.30;75.70;;;;;;5075784;28;20123;-61
2021/01/24 00:36:41;;;;;;;14.65;8.13;;;6.30;75.70;;;;;;5074666;28;20134;-62
2021/01/24 00:39:07;;;;;;;15.48;7.95;;;6.30;75.70;;;;;;5075731;28;20025;-61
2021/01/24 00:41:33;;;;;;;14.45;7.18;;;6.30;76.30;;;;;;5075589;28;20057;-61
2021/01/24 00:43:59;;;;;;;14.40;7.90;;;6.30;75.60;;;;;;5074886;28;20024;-61
2021/01/24 00:46:25;;;;;;;14.68;8.25;;;6.30;75.60;;;;;;5075514;28;20042;-61
2021/01/24 00:48:51;;;;;;;16.27;8.18;;;6.30;75.50;;;;;;5075572;28;20100;-61
2021/01/24 00:51:17;;;;;;;15.95;7.80;;;6.40;75.60;;;;;;5074545;28;20388;-61
2021/01/24 00:53:43;;;;;;;12.65;7.18;;;6.30;75.60;;;;;;5073971;28;20024;-61
2021/01/24 00:56:09;;;;;;;14.80;7.80;;;6.40;75.70;;;;;;5074188;28;20058;-61
2021/01/24 00:58:36;;;;;;;14.80;8.40;;;6.40;75.70;;;;;;5073274;28;20388;-61
2021/01/24 01:01:02;;;;;;;15.98;8.35;;;6.40;75.70;;;;;;5075328;28;20427;-61
2021/01/24 01:03:27;;;;;;;16.50;8.27;;;6.40;75.70;;;;;;5075286;28;20412;-61
2021/01/24 01:05:53;;;;;;;19.05;8.27;;;6.40;75.70;;;;;;5074199;28;20058;-61
2021/01/24 01:08:19;;;;;;;19.23;7.88;;;6.40;75.60;;;;;;5075415;28;20085;-62
2021/01/24 01:10:45;;;;;;;17.30;7.80;;;6.40;75.70;;;;;;5075198;28;20624;-61
2021/01/24 01:13:10;;;;;;;24.75;9.27;;;6.40;75.70;;;;;;5074409;28;20070;-61
2021/01/24 01:15:36;;;;;;;18.90;7.88;;;6.40;75.70;;;;;;5074774;28;20062;-61
2021/01/24 01:18:02;;;;;;;14.90;8.30;;;6.40;75.70;;;;;;5074116;28;20056;-61
2021/01/24 01:20:28;;;;;;;13.93;8.27;;;6.40;75.80;;;;;;5074951;28;20036;-61
2021/01/24 01:22:54;;;;;;;11.77;6.80;;;6.40;75.70;;;;;;5074881;28;20103;-61
2021/01/24 01:25:20;;;;;;;16.55;7.30;;;6.40;75.70;;;;;;5074387;28;20033;-61
2021/01/24 01:27:45;;;;;;;18.33;8.35;;;6.40;75.60;;;;;;5074899;28;20028;-62
2021/01/24 01:30:11;;;;;;;15.77;8.13;;;6.40;75.50;;;;;;5075024;28;20407;-61
2021/01/24 01:32:37;;;;;;;13.65;7.88;;;6.40;75.40;;;;;;5073980;28;20028;-61
2021/01/24 01:35:04;;;;;;;16.30;7.95;;;6.40;75.40;;;;;;5074255;28;20032;-62
2021/01/24 01:37:30;;;;;;;13.00;7.90;;;6.40;75.40;;;;;;5074501;28;20053;-61
2021/01/24 01:39:56;;;;;;;19.33;7.72;;;6.40;75.30;;;;;;5073960;28;20027;-61
2021/01/24 01:42:22;;;;;;;15.15;7.07;;;6.40;75.20;;;;;;5074743;28;20074;-61
2021/01/24 01:44:47;;;;;;;15.32;7.68;;;6.40;75.20;;;;;;5074439;28;20059;-61
2021/01/24 01:47:20;;;;;;;14.45;7.47;;;6.40;75.10;;;;;;5073755;28;20082;-61
2021/01/24 01:49:46;;;;;;;14.80;8.13;;;6.40;75.00;;;;;;5074269;28;20025;-61
2021/01/24 01:52:12;;;;;;;13.90;7.40;;;6.40;75.00;;;;;;5074365;28;20029;-61
2021/01/24 01:54:37;;;;;;;15.82;7.85;;;6.40;75.00;;;;;;5073725;28;20020;-61
2021/01/24 01:57:03;;;;;;;14.68;7.90;;;6.40;75.60;;;;;;5074190;28;20041;-61
2021/01/24 01:59:28;;;;;;;15.15;7.93;;;6.40;75.10;;;;;;5070765;28;20057;-62
2021/01/24 02:01:54;;;;;;;18.52;7.65;;;6.40;75.10;;;;;;5066543;28;20047;-61
2021/01/24 02:04:35;;;;;;;14.80;7.35;;;6.40;75.00;;;;;;5073741;28;20028;-61
2021/01/24 02:07:23;;;;;;;17.98;7.65;;;6.40;75.10;;;;;;5074102;28;20028;-61
2021/01/24 02:09:55;;;;;;;16.10;8.25;;;6.30;75.10;;;;;;5073989;28;20051;-61
2021/01/24 02:12:31;;;;;;;13.32;7.20;;;6.30;75.10;;;;;;5073945;28;20021;-61
2021/01/24 02:15:14;;;;;;;16.63;8.38;;;6.30;75.20;;;;;;5073063;28;20029;-61
2021/01/24 02:17:45;;;;;;;12.02;7.20;;;6.20;75.20;;;;;;5073942;28;20388;-61
2021/01/24 02:20:55;;;;;;;19.08;8.00;;;6.30;75.30;;;;;;5073900;28;20107;-61
2021/01/24 02:23:24;;;;;;;12.23;6.68;;;6.30;75.50;;;;;;5067258;28;20041;-61
2021/01/24 02:26:21;;;;;;;14.77;7.85;;;6.20;75.30;;;;;;5073781;28;20028;-61
2021/01/24 02:29:08;;;;;;;15.68;7.68;;;6.20;75.50;;;;;;5072867;28;20043;-61
2021/01/24 02:31:36;;;;;;;16.05;8.07;;;6.20;75.50;;;;;;5073606;28;20024;-61
2021/01/24 02:34:04;;;;;;;18.27;7.35;;;6.10;75.50;;;;;;5073533;28;20380;-61
2021/01/24 02:36:31;;;;;;;15.73;8.40;;;6.20;75.70;;;;;;5072604;28;20102;-61
2021/01/24 02:38:58;;;;;;;13.60;6.97;;;6.20;75.70;;;;;;5073418;28;20055;-61
2021/01/24 02:41:25;;;;;;;15.68;6.80;;;6.10;75.60;;;;;;5073477;28;20377;-61
2021/01/24 02:43:51;;;;;;;12.82;6.38;;;6.10;75.60;;;;;;5072605;28;20055;-61
2021/01/24 02:46:18;;;;;;;11.18;6.45;;;6.10;75.60;;;;;;5072909;28;20059;-61
2021/01/24 02:48:49;;;;;;;13.27;7.18;;;6.10;75.60;;;;;;5073392;28;20078;-61
2021/01/24 02:51:16;;;;;;;18.15;9.20;;;6.10;75.60;;;;;;5072458;28;20127;-61
2021/01/24 02:53:44;;;;;;;19.00;8.00;;;6.10;75.60;;;;;;5073250;28;20070;-61
2021/01/24 02:56:10;;;;;;;15.00;7.55;;;6.10;75.80;;;;;;5072980;28;20043;-61
2021/01/24 02:58:37;;;;;;;14.38;8.48;;;6.10;75.70;;;;;;5072209;28;20020;-61
2021/01/24 03:01:03;;;;;;;15.90;7.63;;;6.10;75.80;;;;;;5073164;28;20079;-61
2021/01/24 03:03:29;;;;;;;15.57;7.80;;;6.10;75.80;;;;;;5072410;28;20029;-61
2021/01/24 03:05:54;;;;;;;21.17;8.45;;;6.10;75.90;;;;;;5073118;28;20023;-61
2021/01/24 03:08:21;;;;;;;15.55;7.95;;;6.10;75.80;;;;;;5072766;28;20408;-61
2021/01/24 03:10:47;;;;;;;19.88;8.68;;;6.10;75.80;;;;;;5072252;28;20037;-61
2021/01/24 03:13:27;;;;;;;16.63;8.00;;;6.00;75.80;;;;;;5072648;28;20043;-62
2021/01/24 03:15:54;;;;;;;14.68;8.52;;;6.10;76.00;;;;;;5073044;28;20040;-61
2021/01/24 03:18:25;;;;;;;14.07;7.60;;;6.10;76.00;;;;;;5072148;28;20020;-61
2021/01/24 03:20:53;;;;;;;16.08;8.20;;;6.10;76.00;;;;;;5072997;28;20104;-61
2021/01/24 03:23:21;;;;;;;17.83;7.90;;;6.10;75.90;;;;;;5072605;28;20024;-61
2021/01/24 03:25:47;;;;;;;13.48;8.55;;;6.10;75.90;;;;;;5072088;28;20087;-61
2021/01/24 03:28:14;;;;;;;15.23;8.13;;;6.10;75.90;;;;;;5072963;28;20028;-61
2021/01/24 03:30:40;;;;;;;15.05;8.25;;;6.10;75.80;;;;;;5072860;28;20150;-61
2021/01/24 03:33:06;;;;;;;18.45;8.60;;;6.10;75.80;;;;;;5072074;28;20455;-61
2021/01/24 03:35:32;;;;;;;14.23;8.20;;;6.20;75.90;;;;;;5072393;28;20032;-62
2021/01/24 03:37:58;;;;;;;16.40;9.30;;;6.10;75.90;;;;;;5072683;28;20434;-61
2021/01/24 03:40:24;;;;;;;16.08;7.55;;;6.20;75.80;;;;;;5072115;28;20052;-61
2021/01/24 03:42:50;;;;;;;14.13;8.60;;;6.20;75.70;;;;;;5072589;28;20056;-61
2021/01/24 03:45:16;;;;;;;11.68;6.50;;;6.20;75.70;;;;;;5072765;28;20070;-61
2021/01/24 03:47:41;;;;;;;13.20;6.93;;;6.10;75.70;;;;;;5071793;28;20063;-61
2021/01/24 03:50:08;;;;;;;8.50;5.45;;;6.10;75.70;;;;;;5072502;28;20064;-61
2021/01/24 03:52:34;;;;;;;16.83;6.45;;;6.10;75.60;;;;;;5072321;28;20028;-61
2021/01/24 03:54:59;;;;;;;15.10;6.20;;;6.10;75.50;;;;;;5071834;28;20040;-61
2021/01/24 03:57:26;;;;;;;9.07;5.15;;;6.00;75.50;;;;;;5073815;28;20093;-61
2021/01/24 03:59:53;;;;;;;9.65;4.93;;;5.90;75.50;;;;;;5069033;28;20057;-61
2021/01/24 04:02:20;;;;;;;15.73;7.47;;;5.90;75.70;;;;;;5056310;28;20033;-61
2021/01/24 04:04:46;;;;;;;16.55;7.72;;;5.80;75.70;;;;;;5056388;28;20529;-61
2021/01/24 04:07:12;;;;;;;11.52;7.28;;;5.80;75.90;;;;;;5055835;28;20021;-61
2021/01/24 04:09:38;;;;;;;12.38;7.55;;;5.80;76.00;;;;;;5069838;28;20480;-61
2021/01/24 04:12:04;;;;;;;15.48;8.23;;;5.80;76.20;;;;;;5076347;28;20035;-61
2021/01/24 04:14:30;;;;;;;13.90;8.38;;;5.80;76.10;;;;;;5075651;28;20055;-61
2021/01/24 04:16:55;;;;;;;18.65;7.10;;;5.90;76.20;;;;;;5075806;28;20480;-61
2021/01/24 04:19:21;;;;;;;13.48;6.82;;;5.80;76.00;;;;;;5076149;28;20487;-61
2021/01/24 04:21:47;;;;;;;15.77;7.40;;;5.80;76.00;;;;;;5075065;28;20388;-61
2021/01/24 04:24:13;;;;;;;13.35;7.55;;;5.80;76.00;;;;;;5076074;28;20032;-61
2021/01/24 04:26:38;;;;;;;12.55;7.78;;;5.80;76.00;;;;;;5076150;28;20028;-61
2021/01/24 04:29:04;;;;;;;16.63;7.07;;;5.80;76.10;;;;;;5075248;28;20059;-61
2021/01/24 04:31:30;;;;;;;17.60;8.43;;;5.80;76.00;;;;;;5063905;28;20025;-61
2021/01/24 04:33:55;;;;;;;15.02;8.20;;;5.80;76.00;;;;;;5070024;28;20387;-61
2021/01/24 04:36:21;;;;;;;14.48;7.65;;;5.90;76.70;;;;;;5074401;28;20463;-61
2021/01/24 04:38:46;;;;;;;14.20;8.15;;;5.80;76.00;;;;;;5074097;28;20450;-61
2021/01/24 04:41:13;;;;;;;12.55;7.72;;;5.80;75.90;;;;;;5068498;28;20039;-61
2021/01/24 04:43:39;;;;;;;15.90;7.35;;;5.90;76.00;;;;;;5074740;28;20107;-61
2021/01/24 04:46:06;;;;;;;15.05;7.72;;;5.80;75.90;;;;;;5075234;28;20103;-61
2021/01/24 04:48:32;;;;;;;17.23;7.13;;;5.90;75.90;;;;;;5074918;28;20029;-61
2021/01/24 04:50:57;;;;;;;15.80;7.00;;;5.80;75.80;;;;;;5074418;28;20035;-61
2021/01/24 04:53:23;;;;;;;15.63;6.60;;;5.90;75.80;;;;;;5073697;28;20045;-61
2021/01/24 04:55:50;;;;;;;16.50;7.47;;;5.80;75.70;;;;;;5065190;28;20041;-61
2021/01/24 04:58:17;;;;;;;12.90;6.93;;;5.80;75.70;;;;;;5068711;28;20028;-61
2021/01/24 05:00:43;;;;;;;14.73;6.35;;;5.80;75.70;;;;;;5069113;28;20543;-61
2021/01/24 05:03:09;;;;;;;14.77;5.65;;;5.70;75.70;;;;;;5068548;28;20155;-61
2021/01/24 05:05:34;;;;;;;11.77;6.03;;;5.70;75.70;;;;;;5064825;28;20373;-61
2021/01/24 05:08:00;;;;;;;11.25;6.07;;;5.70;75.90;;;;;;5066816;28;20486;-61
2021/01/24 05:10:28;;;;;;;14.80;6.60;;;5.60;75.90;;;;;;5074691;28;20036;-61
2021/01/24 05:12:54;;;;;;;12.45;6.90;;;5.60;76.10;;;;;;5075368;28;20028;-61
2021/01/24 05:15:21;;;;;;;14.98;6.90;;;5.60;76.20;;;;;;5074858;28;20034;-61
2021/01/24 05:17:55;;;;;;;11.68;7.13;;;5.60;76.30;;;;;;5074446;28;20068;-61
2021/01/24 05:20:28;;;;;;;16.13;6.55;;;5.60;76.30;;;;;;5074919;28;20035;-61
2021/01/24 05:22:59;;;;;;;14.82;7.25;;;5.50;76.20;;;;;;5075228;28;20438;-61
2021/01/24 05:25:29;;;;;;;15.70;7.57;;;5.60;76.30;;;;;;5074277;28;20082;-61
2021/01/24 05:27:55;;;;;;;15.68;6.60;;;5.60;76.30;;;;;;5075027;28;20028;-61
2021/01/24 05:30:32;;;;;;;14.63;6.30;;;5.50;76.30;;;;;;5074697;28;20032;-61
2021/01/24 05:32:59;;;;;;;12.02;6.35;;;5.50;76.50;;;;;;5074007;28;20483;-61
2021/01/24 05:35:26;;;;;;;8.70;4.72;;;5.50;76.50;;;;;;5074326;28;20365;-62
2021/01/24 05:37:52;;;;;;;17.40;6.25;;;5.40;76.50;;;;;;5074908;28;20038;-61
2021/01/24 05:40:18;;;;;;;14.55;6.43;;;5.40;76.60;;;;;;5074055;28;20036;-61
2021/01/24 05:42:46;;;;;;;12.07;6.15;;;5.40;76.70;;;;;;5074521;28;20518;-61
2021/01/24 05:45:15;;;;;;;12.73;5.90;;;5.40;76.80;;;;;;5074357;28;20388;-61
2021/01/24 05:47:43;;;;;;;12.02;6.25;;;5.40;76.90;;;;;;5074529;28;20060;-61
2021/01/24 05:50:17;;;;;;;17.55;6.55;;;5.40;76.90;;;;;;5074596;28;20033;-61
2021/01/24 05:52:47;;;;;;;14.40;5.75;;;5.40;77.00;;;;;;5073611;28;20032;-61
2021/01/24 05:55:33;;;;;;;9.10;5.40;;;5.30;76.80;;;;;;5074423;28;20086;-61
2021/01/24 05:58:13;;;;;;;17.67;5.97;;;5.40;76.90;;;;;;5074336;28;20059;-61
2021/01/24 06:00:40;;;;;;;12.00;5.90;;;5.40;76.80;;;;;;5073459;28;20055;-61
2021/01/24 06:03:07;;;;;;;10.50;5.07;;;5.30;76.90;;;;;;5074155;28;20035;-61
2021/01/24 06:05:34;;;;;;;7.65;3.50;;;5.30;76.90;;;;;;5074036;28;20541;-61
2021/01/24 06:08:00;;;;;;;9.07;4.85;;;5.30;77.00;;;;;;5073228;28;20081;-61
2021/01/24 06:10:26;;;;;;;6.88;3.55;;;5.30;77.10;;;;;;5060148;28;20065;-61
2021/01/24 06:12:53;;;;;;;9.05;5.22;;;5.20;77.20;;;;;;5074135;28;20377;-62
2021/01/24 06:15:23;;;;;;;12.13;4.90;;;5.20;77.40;;;;;;5073089;28;20036;-62
2021/01/24 06:17:52;;;;;;;10.90;5.43;;;5.20;77.50;;;;;;5073868;28;20036;-62
2021/01/24 06:20:19;;;;;;;8.95;4.93;;;5.20;77.60;;;;;;5072780;28;20392;-61
2021/01/24 06:22:47;;;;;;;10.15;3.63;;;5.20;77.60;;;;;;5073149;28;20108;-61
2021/01/24 06:25:23;;;;;;;11.85;4.63;;;5.20;77.70;;;;;;5073737;28;20032;-61
2021/01/24 06:27:59;;;;;;;10.07;4.85;;;5.10;77.80;;;;;;5072951;28;20464;-61
2021/01/24 06:30:27;;;;;;;5.55;3.55;;;5.10;77.80;;;;;;5073636;28;20024;-61
2021/01/24 06:32:53;;;;;;;13.48;4.35;;;5.10;77.90;;;;;;5073473;28;20380;-61
2021/01/24 06:35:24;;;;;;;7.18;3.45;;;5.10;78.00;;;;;;5072414;28;20041;-61
2021/01/24 06:37:57;;;;;;;6.75;3.38;;;5.10;78.00;;;;;;5073417;28;20077;-61
2021/01/24 06:40:28;;;;;;;10.63;3.70;;;5.10;78.10;;;;;;5073489;28;20031;-61
2021/01/24 06:42:56;;;;;;;12.00;4.13;;;5.10;78.20;;;;;;5072686;28;20044;-61
2021/01/24 06:45:22;;;;;;;8.77;4.97;;;5.00;78.20;;;;;;5073321;28;20032;-61
2021/01/24 06:47:48;;;;;;;20.48;4.95;;;5.10;78.30;;;;;;5073136;28;20029;-61
2021/01/24 06:50:47;;;;;;;4.97;3.17;;;5.10;78.30;;;;;;5070794;28;20449;-61
2021/01/24 06:53:24;;;;;;;8.07;2.15;;;5.10;78.40;;;;;;5059904;28;20068;-61
2021/01/24 06:55:56;;;;;;;6.32;3.30;;;5.10;78.30;;;;;;5065952;28;20044;-61
2021/01/24 06:58:29;;;;;;;4.68;2.33;;;5.10;78.30;;;;;;5070348;28;20029;-61
2021/01/24 07:01:26;;;;;;;6.03;3.17;;;5.00;78.30;;;;;;5066984;28;20104;-62
2021/01/24 07:04:17;;;;;;;1.23;0.98;;;5.00;78.40;;;;;;5068247;28;20040;-61
2021/01/24 07:06:49;;;;;;;5.43;2.58;;;5.00;78.50;;;;;;5060129;28;20017;-61
2021/01/24 07:09:24;;;;;;;1.33;1.17;;;4.90;78.60;;;;;;5069962;28;20036;-61
2021/01/24 07:12:01;;;;;;;10.60;2.90;;;5.00;78.80;;;;;;5072290;28;20028;-61
2021/01/24 07:14:35;;;;;;;3.00;2.15;;;4.90;78.90;;;;;;5072670;28;20035;-61
2021/01/24 07:17:07;;;;;;;10.52;3.88;;;4.90;79.00;;;;;;5071734;28;20066;-61
2021/01/24 07:19:54;;;;;;;1.00;0.88;;;4.90;79.00;;;;;;5072890;28;20050;-61
2021/01/24 07:22:25;;;;;;;5.80;3.03;;;4.90;79.20;;;;;;5072798;28;20058;-61
2021/01/24 07:24:52;;;;;;;6.05;2.80;;;4.90;79.20;;;;;;5072169;28;20032;-61
2021/01/24 07:27:20;;;;;;;6.30;2.50;;;4.90;79.20;;;;;;5072619;28;20025;-61
2021/01/24 07:29:46;;;;;;;1.05;0.85;;;4.90;79.30;;;;;;5072232;28;20119;-61
2021/01/24 07:32:17;;;;;;;0.52;0.52;;;4.90;79.70;;;;;;5069786;28;20112;-61
2021/01/24 07:34:48;;;;;;;1.92;1.35;;;4.80;79.50;;;;;;5070520;28;20075;-62
2021/01/24 07:37:14;;;;;;;2.70;1.23;;;4.80;79.50;;;;;;5067560;28;20397;-61
2021/01/24 07:39:41;;;;;;;5.95;2.30;;;4.80;79.40;;;;;;5069798;28;20028;-61
2021/01/24 07:42:07;;;;;;;2.70;1.40;;;4.80;79.70;;;;;;5068102;28;20507;-61
2021/01/24 07:44:37;;;;;;;3.30;1.75;;;4.80;79.80;;;;;;5070632;28;20032;-60
2021/01/24 07:47:03;;;;;;;2.95;1.60;;;4.80;79.90;;;;;;5068009;28;20024;-60
2021/01/24 07:49:29;;;;;;;1.30;1.20;;;4.90;80.30;;;;;;5059307;28;20032;-61
2021/01/24 07:51:55;;;;;;;2.10;1.02;;;4.90;80.30;;;;;;5071345;28;20067;-61
2021/01/24 07:54:21;;;;;;;0.85;0.73;;;5.00;80.20;;;;;;5071655;28;20021;-61
2021/01/24 07:56:47;;;;;;;1.33;1.20;;;5.10;80.20;;;;;;5071755;28;20110;-61
2021/01/24 07:59:16;;;;;;;2.20;1.20;;;5.10;79.80;;;;;;5070844;28;20125;-61
2021/01/24 08:01:42;;;;;;;2.75;1.40;;;5.10;80.00;;;;;;5071632;28;20493;-61
2021/01/24 08:04:08;;;;;;;4.13;2.38;;;5.20;80.10;;;;;;5071846;28;20020;-61
2021/01/24 08:06:38;;;;;;;3.60;2.28;;;5.20;79.80;;;;;;5067180;28;20021;-61
2021/01/24 08:09:05;;;;;;;4.45;1.83;;;5.20;80.00;;;;;;5062519;28;20119;-61
2021/01/24 08:11:31;;;;;;;5.00;1.85;;;5.20;80.00;;;;;;5070109;28;20032;-62
2021/01/24 08:13:57;;;;;;;1.85;1.30;;;5.20;80.00;;;;;;5069801;28;20041;-60
2021/01/24 08:16:38;;;;;;;1.58;1.30;;;5.20;80.00;;;;;;5069362;28;20101;-63
2021/01/24 08:19:07;;;;;;;1.90;1.35;;;5.20;79.90;;;;;;5059410;28;20067;-61
2021/01/24 08:21:33;;;;;;;1.27;0.95;;;5.20;79.80;;;;;;5068023;28;20043;-63
2021/01/24 08:24:01;;;;;;;1.67;0.88;;;5.20;79.80;;;;;;5070961;28;20036;-61
2021/01/24 08:26:27;;;;;;;1.30;1.23;;;5.20;79.80;;;;;;5070216;28;20028;-61
2021/01/24 08:28:53;;;;;;;4.18;1.27;;;5.20;80.30;;;;;;5065236;28;20162;-61
2021/01/24 08:31:22;;;;;;;3.22;1.17;;;5.20;79.60;;;;;;5067866;28;20059;-61
2021/01/24 08:33:51;;;;;;;5.22;1.42;;;5.10;79.80;;;;;;5064418;28;20086;-61
2021/01/24 08:36:25;;;;;;;0.90;0.90;;;5.10;80.00;;;;;;5067011;28;20052;-61
2021/01/24 08:38:56;;;;;;;3.80;0.77;;;5.20;80.30;;;;;;5067963;28;20025;-61
2021/01/24 08:41:30;;;;;;;1.00;0.90;;;5.20;80.40;;;;;;5067304;28;20043;-61
2021/01/24 08:44:09;;;;;;;1.80;1.00;;;5.20;80.60;;;;;;5069870;28;20115;-60
2021/01/24 08:46:38;;;;;;;1.65;1.02;;;5.20;80.70;;;;;;5071996;28;20064;-61
2021/01/24 08:49:08;;;;;;;2.13;0.65;;;5.20;80.50;;;;;;5070856;28;20036;-62
2021/01/24 08:51:44;;;;;;;2.42;0.90;;;5.30;80.60;;;;;;5071361;28;20082;-59
2021/01/24 08:54:36;;;;;;;0.60;0.60;;;5.30;80.60;;;;;;5071349;28;20435;-59
2021/01/24 08:57:11;;;;;;;0.70;0.70;;;5.30;80.70;;;;;;5068521;28;20132;-59
2021/01/24 08:59:38;;;;;;;2.78;0.95;;;5.30;80.40;;;;;;5070592;28;20107;-60
2021/01/24 09:02:05;;;;;;;2.97;0.82;;;5.40;80.40;;;;;;5069819;28;20028;-60
2021/01/24 09:04:33;;;;;;;1.83;0.80;;;5.40;80.50;;;;;;5067897;28;20051;-59
2021/01/24 09:07:09;;;;;;;2.58;0.80;;;5.50;80.50;;;;;;5070982;28;20491;-59
2021/01/24 09:09:41;;;;;;;0.63;0.63;;;5.50;80.60;;;;;;5071873;28;20036;-59
2021/01/24 09:12:09;;;;;;;0.90;0.90;;;5.60;80.50;;;;;;5072082;28;20479;-59
2021/01/24 09:14:35;;;;;;;1.13;0.95;;;5.70;80.40;;;;;;5069375;28;20031;-59
2021/01/24 09:17:04;;;;;;;1.25;1.13;;;5.70;80.20;;;;;;5069384;28;20044;-59
2021/01/24 09:19:30;;;;;;;0.80;0.80;;;5.70;80.10;;;;;;5072048;28;20025;-59
2021/01/24 09:21:56;;;;;;;2.10;0.70;;;5.70;80.00;;;;;;5068695;28;20404;-59
2021/01/24 09:24:22;;;;;;;0.75;0.70;;;5.70;80.00;;;;;;5071380;28;20040;-60
2021/01/24 09:26:49;;;;;;;1.20;0.60;;;5.80;80.10;;;;;;5068430;28;20033;-59
2021/01/24 09:29:15;;;;;;;2.90;0.80;;;5.80;80.10;;;;;;5071897;28;20123;-59
2021/01/24 09:31:41;;;;;;;0.70;0.70;;;5.80;80.10;;;;;;5060560;28;20025;-59
2021/01/24 09:34:07;;;;;;;3.25;0.80;;;5.80;80.10;;;;;;5073459;28;20032;-59
2021/01/24 09:36:33;;;;;;;1.30;0.70;;;5.80;80.10;;;;;;5073497;28;20056;-59
2021/01/24 09:39:00;;;;;;;0.57;0.57;;;5.80;80.10;;;;;;5070870;28;20029;-59
2021/01/24 09:41:26;;;;;;;4.00;0.90;;;5.90;80.10;;;;;;5074448;28;20280;-60
2021/01/24 09:43:51;;;;;;;1.42;0.90;;;5.90;80.20;;;;;;5066068;28;20028;-61
2021/01/24 09:46:17;;;;;;;2.70;1.00;;;5.90;80.10;;;;;;5066619;28;20404;-59
2021/01/24 09:48:43;;;;;;;1.90;0.80;;;6.00;80.20;;;;;;5053324;28;20037;-60
2021/01/24 09:51:09;;;;;;;3.88;0.95;;;6.00;80.20;;;;;;5055147;28;20025;-60
2021/01/24 09:53:38;;;;;;;1.75;0.95;;;5.90;80.80;;;;;;5064528;28;20036;-60
2021/01/24 09:56:07;;;;;;;2.70;0.63;;;6.00;80.30;;;;;;5066591;28;20095;-60
2021/01/24 09:58:33;;;;;;;3.40;0.90;;;6.00;80.40;;;;;;5065417;28;20025;-60
2021/01/24 10:01:00;;;;;;;0.88;0.88;;;6.00;80.40;;;;;;5060544;28;20036;-60
2021/01/24 10:03:25;;;;;;;1.20;0.70;;;6.00;79.90;;;;;;5065327;28;20354;-59
2021/01/24 10:05:51;;;;;;;1.02;0.45;;;6.00;79.40;;;;;;5060838;28;20033;-60
2021/01/24 10:08:18;;;;;;;0.40;0.40;;;6.00;78.80;;;;;;5063269;28;20029;-60
2021/01/24 10:10:46;;;;;;;0.63;0.63;;;5.90;78.60;;;;;;5073713;28;20512;-60
2021/01/24 10:13:13;;;;;;;1.08;0.68;;;5.80;78.50;;;;;;5072048;28;20033;-60
2021/01/24 10:15:40;;;;;;;0.40;0.40;;;5.80;78.80;;;;;;5073798;28;20044;-60
2021/01/24 10:18:06;;;;;;;1.85;0.60;;;5.70;79.10;;;;;;5066888;28;20391;-61
2021/01/24 10:20:32;;;;;;;1.35;0.65;;;5.70;79.60;;;;;;5065119;28;20044;-61
2021/01/24 10:22:58;;;;;;;1.15;1.05;;;5.60;80.00;;;;;;5073610;28;20198;-61
2021/01/24 10:25:24;;;;;;;0.75;0.75;;;5.60;80.30;;;;;;5061404;28;20561;-61
2021/01/24 10:27:50;;;;;;;3.28;1.02;;;5.60;80.70;;;;;;5068246;28;20077;-60
2021/01/24 10:30:16;;;;;;;1.95;0.85;;;5.50;81.20;;;;;;5072340;28;20116;-60
2021/01/24 10:32:42;;;;;;;0.60;0.60;;;5.50;81.60;;;;;;5053790;28;20029;-60
2021/01/24 10:35:08;;;;;;;0.75;0.73;;;5.40;82.00;;;;;;5053744;28;20032;-60
2021/01/24 10:37:34;;;;;;;0.80;0.80;;;5.40;82.40;;;;;;5053158;28;20052;-60
2021/01/24 10:40:00;;;;;;;1.02;0.70;;;5.40;82.80;;;;;;5061678;28;20032;-60
2021/01/24 10:42:26;;;;;;;1.20;0.65;;;5.40;83.20;;;;;;5053279;28;20417;-60
2021/01/24 10:44:52;;;;;;;1.27;0.68;;;5.40;83.40;;;;;;5054124;28;20159;-60
2021/01/24 10:47:17;;;;;;;1.73;0.60;;;5.40;83.60;;;;;;5055735;28;20476;-60
2021/01/24 10:49:43;;;;;;;2.70;0.75;;;5.40;83.80;;;;;;5057521;28;20341;-60
2021/01/24 10:52:09;;;;;;;0.47;0.47;;;5.40;84.00;;;;;;5050873;28;20378;-61
2021/01/24 10:54:35;;;;;;;0.50;0.50;;;5.40;84.10;;;;;;5052635;28;20029;-61
2021/01/24 10:57:01;;;;;;;1.42;0.70;;;5.40;84.20;;;;;;5051903;28;20424;-61
2021/01/24 10:59:27;;;;;;;0.50;0.50;;;5.40;84.30;;;;;;5050445;28;20075;-61
2021/01/24 11:01:53;;;;;;;0.40;0.40;;;5.50;84.50;;;;;;5052188;28;20087;-61
2021/01/24 11:04:18;;;;;;;0.50;0.50;;;5.50;84.80;;;;;;5052542;28;20025;-61
2021/01/24 11:06:44;;;;;;;0.40;0.40;;;5.50;85.00;;;;;;5051484;28;20028;-61
2021/01/24 11:09:10;;;;;;;0.70;0.70;;;5.50;85.20;;;;;;5053066;28;20040;-62
2021/01/24 11:11:35;;;;;;;0.70;0.70;;;5.50;85.30;;;;;;5051927;28;20396;-59
2021/01/24 11:14:01;;;;;;;0.80;0.80;;;5.50;85.60;;;;;;5060161;28;20476;-59
2021/01/24 11:16:26;;;;;;;1.02;1.00;;;5.50;85.60;;;;;;5054714;28;20048;-62
2021/01/24 11:18:52;;;;;;;3.28;1.88;;;5.60;86.20;;;;;;5057869;28;20079;-60
2021/01/24 11:21:19;;;;;;;1.10;0.98;;;5.60;85.60;;;;;;5056388;28;20499;-60
2021/01/24 11:23:44;;;;;;;1.80;1.20;;;5.70;85.60;;;;;;5054872;28;20120;-60
2021/01/24 11:26:10;;;;;;;1.48;0.98;;;5.70;85.60;;;;;;5052719;28;20104;-60
2021/01/24 11:28:36;;;;;;;0.80;0.80;;;5.70;85.50;;;;;;5053154;28;20029;-60
2021/01/24 11:31:02;;;;;;;0.40;0.40;;;5.80;85.40;;;;;;5056970;28;20498;-60
2021/01/24 11:33:28;;;;;;;0.52;0.52;;;5.80;85.30;;;;;;5068914;28;20559;-60
2021/01/24 11:35:53;;;;;;;2.63;0.70;;;5.90;85.30;;;;;;5068895;28;20127;-60
2021/01/24 11:38:19;;;;;;;1.75;0.95;;;5.90;85.00;;;;;;5054663;28;20472;-60
2021/01/24 11:40:45;;;;;;;0.55;0.50;;;6.00;84.90;;;;;;5055466;28;20053;-60
2021/01/24 11:43:12;;;;;;;0.82;0.60;;;6.00;84.80;;;;;;5053511;28;20461;-60
2021/01/24 11:45:37;;;;;;;2.72;1.98;;;6.00;84.80;;;;;;5052287;28;20060;-60
2021/01/24 11:48:04;;;;;;;0.85;0.75;;;6.10;84.70;;;;;;5053190;28;20065;-61
2021/01/24 11:50:29;;;;;;;0.80;0.55;;;6.20;84.70;;;;;;5054534;28;20025;-61
2021/01/24 11:52:55;;;;;;;1.17;0.73;;;6.20;84.60;;;;;;5051831;28;20120;-61
2021/01/24 11:55:20;;;;;;;0.50;0.50;;;6.20;84.60;;;;;;5060252;28;20028;-61
2021/01/24 11:57:46;;;;;;;0.73;0.50;;;6.30;84.60;;;;;;5067628;28;20090;-61
2021/01/24 12:00:12;;;;;;;1.75;0.55;;;6.30;84.40;;;;;;5066145;28;20029;-61
2021/01/24 12:02:38;;;;;;;0.68;0.68;;;6.30;84.00;;;;;;5067768;28;20461;-62
2021/01/24 12:05:04;;;;;;;0.70;0.70;;;6.40;83.80;;;;;;5066826;28;20032;-61
2021/01/24 12:07:30;;;;;;;0.80;0.60;;;6.40;83.50;;;;;;5060383;28;20091;-61
2021/01/24 12:09:55;;;;;;;1.50;0.50;;;6.40;83.20;;;;;;5058101;28;20040;-61
2021/01/24 12:12:21;;;;;;;0.32;0.32;;;6.40;83.20;;;;;;5061411;28;20040;-62
2021/01/24 12:14:47;;;;;;;0.38;0.38;;;6.40;83.10;;;;;;5062196;28;20036;-61
2021/01/24 12:17:12;;;;;;;0.55;0.50;;;6.40;83.20;;;;;;5062435;28;21211;-62
2021/01/24 12:19:38;;;;;;;0.30;0.30;;;6.40;82.90;;;;;;5058611;28;20032;-61
2021/01/24 12:22:04;;;;;;;0.65;0.50;;;6.40;82.90;;;;;;5059201;28;20480;-61
2021/01/24 12:24:29;;;;;;;0.43;0.43;;;6.40;83.10;;;;;;5056099;28;20389;-61
2021/01/24 12:26:55;;;;;;;0.75;0.55;;;6.40;83.20;;;;;;5054842;28;20036;-61
2021/01/24 12:29:21;;;;;;;2.97;0.50;;;6.40;83.30;;;;;;5054503;28;20025;-60
2021/01/24 12:31:46;;;;;;;0.50;0.50;;;6.40;83.00;;;;;;5057081;28;20072;-61
2021/01/24 12:34:12;;;;;;;0.50;0.50;;;6.40;82.80;;;;;;5059491;28;20029;-60
2021/01/24 12:36:38;;;;;;;0.47;0.47;;;6.40;82.60;;;;;;5059064;28;20061;-61
2021/01/24 12:39:04;;;;;;;0.40;0.40;;;6.40;82.70;;;;;;5058011;28;20033;-60
2021/01/24 12:41:29;;;;;;;3.70;0.73;;;6.40;82.70;;;;;;5059415;28;20492;-60
2021/01/24 12:43:55;;;;;;;0.80;0.80;;;6.40;82.80;;;;;;5058354;28;20043;-60
2021/01/24 12:46:21;;;;;;;1.67;0.77;;;6.50;82.80;;;;;;5059074;28;20040;-61
2021/01/24 12:48:46;;;;;;;1.27;0.50;;;6.50;82.70;;;;;;5058493;28;20028;-66
2021/01/24 12:51:12;;;;;;;0.38;0.38;;;6.50;82.70;;;;;;5063575;28;20031;-61
2021/01/24 12:53:38;;;;;;;1.85;1.08;;;6.60;82.60;;;;;;5066287;28;20062;-78
2021/01/24 12:56:04;;;;;;;0.55;0.52;;;6.60;82.50;;;;;;5061545;28;20025;-63